Terminal Aerodrome Forecast
Issued by NWS

Home | Current Version | Previous Version | Text Only | Print | Product List | Glossary On
Versions: 1 2 3 4 5 6 7 8 9 10 11 12 13 14
072
FTUS45 KTFX 211724
TAFGTF
TAF
KGTF 211724Z 2118/2218 33007KT P6SM FEW070 SCT200
     FM220300 04011KT P6SM SCT050 BKN120 PROB30 2206/2210 4SM -RA BR
      SCT015 BKN035
     FM221000 02010KT 3/4SM -RASN BR SCT003 OVC015=

USA.gov is the U.S. government's official web portal to all federal, state and local government web resources and services.